Time;durP1;ratioP1;P1;durP2;ratioP2;P2;SDS_P1;SDS_P2;PMS_P1;PMS_P2;Temp;Humidity;BMP_temperature;BMP_pressure;BME280_temperature;BME280_humidity;BME280_pressure;Samples;Min_cycle;Max_cycle;Signal;HPM_P1;HPM_P2
2023/07/21 00:01:36;;;;;;;5.80;4.30;;;17.50;93.00;;;;;;4881616;29;20057;-57
2023/07/21 00:04:03;;;;;;;9.80;4.00;;;17.50;93.00;;;;;;4882711;29;20036;-55
2023/07/21 00:06:31;;;;;;;4.72;3.63;;;17.40;93.20;;;;;;4882656;29;20045;-54
2023/07/21 00:08:57;;;;;;;7.30;4.03;;;17.40;93.30;;;;;;4882672;29;20488;-56
2023/07/21 00:15:21;;;;;;;;;;;;;;;;;;;;;
2023/07/21 00:21:49;;;;;;;5.47;4.03;;;17.20;93.80;;;;;;4882634;29;20036;-54
2023/07/21 00:25:43;;;;;;;6.20;4.28;;;17.10;93.80;;;;;;4882680;29;20126;-57
2023/07/21 00:28:40;;;;;;;5.28;4.05;;;17.00;94.00;;;;;;4881380;29;20061;-56
2023/07/21 00:31:08;;;;;;;5.72;4.50;;;17.00;94.20;;;;;;4896822;29;20122;-57
2023/07/21 00:33:36;;;;;;;5.68;4.30;;;17.00;94.30;;;;;;4897576;29;20041;-58
2023/07/21 00:37:00;;;;;;;6.57;4.28;;;16.90;94.20;;;;;;4823899;29;20043;-56
2023/07/21 00:39:44;;;;;;;;;;;;;;;;;;;;;
2023/07/21 00:42:55;;;;;;;6.97;4.35;;;16.90;94.70;;;;;;4724969;30;20057;-58
2023/07/21 00:45:22;;;;;;;5.72;4.45;;;16.90;94.60;;;;;;4752378;30;20048;-58
2023/07/21 00:47:51;;;;;;;6.47;4.13;;;16.90;94.70;;;;;;4769786;30;20488;-53
2023/07/21 00:51:22;;;;;;;8.82;4.40;;;16.80;94.80;;;;;;4771113;30;20120;-53
2023/07/21 00:53:54;;;;;;;6.30;4.47;;;16.80;94.90;;;;;;4770738;30;20519;-55
2023/07/21 00:56:53;;;;;;;;;;;;;;;;;;;;;
2023/07/21 00:59:21;;;;;;;8.75;5.03;;;16.70;95.00;;;;;;4755478;30;20052;-59
2023/07/21 01:05:32;;;;;;;6.78;4.65;;;16.70;94.60;;;;;;4751532;30;20129;-56
2023/07/21 01:08:08;;;;;;;6.25;4.55;;;16.60;94.60;;;;;;4753040;30;20069;-54
2023/07/21 01:14:36;;;;;;;7.38;4.80;;;16.50;94.40;;;;;;4824151;29;20418;-56
2023/07/21 01:17:19;;;;;;;;;;;;;;;;;;;;;
2023/07/21 01:26:48;;;;;;;6.25;4.95;;;16.40;94.30;;;;;;4885211;29;20134;-59
2023/07/21 01:49:21;;;;;;;7.90;5.35;;;16.20;94.30;;;;;;4883214;24;20049;-57
2023/07/21 01:51:48;;;;;;;7.90;5.32;;;16.10;94.40;;;;;;4846369;29;20053;-55
2023/07/21 01:57:59;;;;;;;;;;;;;;;;;;;;;
2023/07/21 02:18:55;;;;;;;8.95;6.43;;;15.70;93.60;;;;;;5190570;24;20060;-56
2023/07/21 02:21:37;;;;;;;8.45;6.28;;;15.70;93.60;;;;;;4869873;29;20111;-54
2023/07/21 02:24:05;;;;;;;8.23;6.78;;;15.60;93.60;;;;;;4863535;29;20401;-57
2023/07/21 02:27:21;;;;;;;7.60;6.57;;;15.60;93.60;;;;;;4869034;29;20056;-56
2023/07/21 02:30:36;;;;;;;9.23;6.65;;;15.60;93.70;;;;;;4898005;23;20049;-57
2023/07/21 02:47:04;;;;;;;;;;;;;;;;;;;;;
2023/07/21 02:56:39;;;;;;;10.82;7.72;;;15.30;93.80;;;;;;4904749;29;20029;-56
2023/07/21 02:59:29;;;;;;;;;;;;;;;;;;;;;
2023/07/21 03:54:24;;;;;;;10.40;8.13;;;14.90;94.40;;;;;;4899907;28;20452;-55
2023/07/21 03:56:56;;;;;;;12.68;8.43;;;14.80;94.40;;;;;;4900662;29;20134;-59
2023/07/21 03:59:23;;;;;;;10.30;8.63;;;14.80;94.40;;;;;;4884716;29;20134;-56
2023/07/21 04:01:53;;;;;;;10.80;8.60;;;14.70;94.60;;;;;;4900307;29;20056;-55
2023/07/21 04:04:20;;;;;;;9.88;8.38;;;14.70;94.70;;;;;;4900306;29;20369;-55
2023/07/21 04:06:48;;;;;;;11.63;8.60;;;14.70;94.60;;;;;;4900599;29;20087;-55
2023/07/21 04:09:25;;;;;;;11.63;9.05;;;14.70;94.80;;;;;;4901132;29;20092;-54
2023/07/21 04:11:52;;;;;;;10.90;8.50;;;14.60;94.80;;;;;;4901246;29;20045;-53
2023/07/21 04:14:19;;;;;;;10.57;8.30;;;14.60;94.90;;;;;;4884704;29;20135;-55
2023/07/21 04:16:46;;;;;;;11.77;8.60;;;14.60;94.90;;;;;;4900092;29;20053;-52
2023/07/21 04:19:16;;;;;;;11.18;9.13;;;14.60;94.90;;;;;;4899857;29;20060;-53
2023/07/21 04:21:44;;;;;;;11.15;9.18;;;14.70;95.00;;;;;;4884430;29;20049;-54
2023/07/21 04:24:11;;;;;;;11.65;8.45;;;14.60;95.00;;;;;;4868988;29;20053;-58
2023/07/21 04:26:41;;;;;;;12.73;9.25;;;14.60;95.20;;;;;;4901109;29;20041;-58
2023/07/21 04:29:09;;;;;;;10.32;9.23;;;14.60;95.10;;;;;;4900936;29;20472;-55
2023/07/21 04:31:56;;;;;;;10.35;8.68;;;14.60;95.00;;;;;;4899975;29;20049;-53
2023/07/21 04:34:24;;;;;;;11.98;9.35;;;14.60;95.10;;;;;;4899913;29;20045;-57
2023/07/21 04:36:52;;;;;;;10.00;8.95;;;14.60;95.30;;;;;;4898498;29;20048;-56
2023/07/21 04:39:28;;;;;;;12.45;9.00;;;14.50;95.30;;;;;;4899605;29;20056;-53
2023/07/21 04:41:55;;;;;;;11.82;9.18;;;14.50;95.40;;;;;;4899537;29;20053;-54
2023/07/21 04:44:25;;;;;;;12.82;9.52;;;14.50;95.50;;;;;;4868998;29;20449;-52
2023/07/21 04:46:56;;;;;;;12.30;9.98;;;14.50;95.40;;;;;;4868724;29;20077;-53
2023/07/21 04:49:31;;;;;;;13.35;9.20;;;14.50;95.20;;;;;;4899372;29;20183;-55
2023/07/21 04:55:39;;;;;;;10.65;9.27;;;14.60;94.90;;;;;;4824584;29;20050;-54
2023/07/21 05:11:43;;;;;;;11.13;9.10;;;14.90;94.00;;;;;;4824478;29;20050;-52
2023/07/21 05:14:44;;;;;;;13.63;8.93;;;15.00;94.00;;;;;;4824219;29;20050;-55
2023/07/21 05:17:35;;;;;;;12.00;9.35;;;15.10;93.90;;;;;;4819137;29;20090;-56
2023/07/21 05:26:42;;;;;;;11.43;8.98;;;15.50;94.20;;;;;;4807380;29;20065;-53
2023/07/21 05:29:37;;;;;;;11.38;8.38;;;15.60;93.90;;;;;;4836557;29;20049;-53
2023/07/21 05:32:34;;;;;;;;;;;15.70;94.00;;;;;;4846032;29;20050;-57
2023/07/21 05:35:25;;;;;;;11.75;8.82;;;15.80;93.70;;;;;;4869670;29;19923;-52
2023/07/21 05:37:57;;;;;;;10.10;8.68;;;15.80;93.80;;;;;;4862563;29;20056;-56
2023/07/21 05:40:28;;;;;;;13.05;8.93;;;15.90;93.60;;;;;;4846294;29;20050;-54
2023/07/21 05:42:56;;;;;;;14.18;9.30;;;16.00;93.50;;;;;;4846204;29;20069;-55
2023/07/21 05:45:47;;;;;;;11.93;9.40;;;16.00;93.40;;;;;;4846457;29;20057;-56
2023/07/21 05:48:14;;;;;;;11.10;8.85;;;16.10;93.10;;;;;;4860703;29;20057;-53
2023/07/21 05:50:46;;;;;;;10.77;9.15;;;16.00;92.80;;;;;;4861493;29;20056;-57
2023/07/21 05:53:25;;;;;;;11.23;8.80;;;15.90;93.20;;;;;;4848191;29;20138;-57
2023/07/21 05:55:52;;;;;;;10.48;8.45;;;15.90;93.10;;;;;;4864248;29;20556;-56
2023/07/21 05:58:34;;;;;;;11.32;9.23;;;15.90;93.30;;;;;;4890694;29;20373;-54
2023/07/21 06:01:01;;;;;;;12.73;8.93;;;15.80;93.40;;;;;;4886808;29;20044;-56
2023/07/21 06:03:32;;;;;;;11.20;8.20;;;15.80;93.40;;;;;;4867549;29;20052;-55
2023/07/21 06:09:31;;;;;;;10.15;8.68;;;15.70;93.70;;;;;;4885276;29;20408;-54
2023/07/21 06:12:28;;;;;;;9.52;8.48;;;15.70;93.60;;;;;;4814080;29;20054;-54
2023/07/21 06:15:30;;;;;;;10.40;8.73;;;15.70;93.70;;;;;;4805433;29;20050;-53
2023/07/21 06:18:08;;;;;;;9.85;8.85;;;15.80;93.60;;;;;;4854201;29;20467;-54
2023/07/21 06:20:39;;;;;;;10.60;9.15;;;15.80;93.60;;;;;;4879422;29;20053;-55
2023/07/21 06:23:06;;;;;;;9.88;8.85;;;15.80;93.50;;;;;;4880510;29;20037;-54
2023/07/21 06:25:38;;;;;;;12.35;8.32;;;15.90;93.60;;;;;;4863984;29;20053;-56
2023/07/21 06:28:10;;;;;;;9.70;8.60;;;16.00;93.60;;;;;;4880341;29;20045;-58
2023/07/21 06:30:37;;;;;;;8.95;8.05;;;16.20;93.30;;;;;;4879294;29;20051;-59
2023/07/21 06:33:07;;;;;;;9.90;8.27;;;16.30;93.30;;;;;;4879004;29;20053;-58
2023/07/21 06:35:41;;;;;;;9.40;8.13;;;16.30;92.90;;;;;;4879055;29;20060;-57
2023/07/21 06:38:26;;;;;;;9.00;7.72;;;16.40;92.90;;;;;;4880330;29;20055;-56
2023/07/21 06:41:11;;;;;;;10.57;8.43;;;16.40;92.60;;;;;;4879423;29;20037;-58
2023/07/21 06:43:45;;;;;;;9.70;8.07;;;16.40;92.60;;;;;;4880664;29;20045;-55
2023/07/21 06:46:35;;;;;;;10.13;7.80;;;16.40;92.50;;;;;;4879727;29;20056;-54
2023/07/21 06:49:16;;;;;;;8.80;7.68;;;16.40;92.30;;;;;;4878718;29;20045;-57
2023/07/21 06:52:03;;;;;;;9.07;7.90;;;16.30;92.50;;;;;;4880188;29;20568;-58
2023/07/21 06:54:31;;;;;;;10.38;8.50;;;16.40;92.40;;;;;;4863309;29;20049;-54
2023/07/21 07:00:33;;;;;;;9.40;8.45;;;16.40;92.20;;;;;;4881592;29;20048;-55
2023/07/21 07:03:01;;;;;;;10.93;8.73;;;16.50;92.40;;;;;;4866737;29;20098;-58
2023/07/21 07:05:29;;;;;;;11.10;8.93;;;16.70;92.30;;;;;;4867135;29;20132;-58
2023/07/21 07:07:56;;;;;;;10.48;8.30;;;16.90;92.30;;;;;;4883792;29;20053;-56
2023/07/21 07:10:29;;;;;;;10.32;8.48;;;17.10;92.10;;;;;;4866528;29;20515;-56
2023/07/21 07:15:50;;;;;;;10.18;8.30;;;17.10;91.30;;;;;;4883550;29;20076;-56
2023/07/21 07:18:17;;;;;;;12.60;8.20;;;17.20;91.00;;;;;;4883694;29;20041;-59
2023/07/21 07:20:45;;;;;;;10.32;7.82;;;17.30;91.20;;;;;;4882327;29;20101;-59
2023/07/21 07:23:12;;;;;;;10.75;8.50;;;17.30;90.80;;;;;;4883557;29;20120;-59
2023/07/21 07:25:39;;;;;;;9.77;7.55;;;17.40;90.80;;;;;;4882472;29;20136;-59
2023/07/21 07:28:06;;;;;;;9.23;7.82;;;17.40;90.70;;;;;;4866657;29;20104;-54
2023/07/21 07:30:34;;;;;;;10.20;7.38;;;17.30;90.80;;;;;;4880233;29;20055;-56
2023/07/21 07:33:04;;;;;;;8.27;7.35;;;17.30;90.50;;;;;;4895068;29;20072;-57
2023/07/21 07:35:31;;;;;;;9.93;7.68;;;17.30;91.00;;;;;;4901335;29;20044;-61
2023/07/21 07:38:02;;;;;;;8.85;7.35;;;17.30;90.30;;;;;;4885166;29;20041;-58
2023/07/21 07:40:30;;;;;;;9.52;6.63;;;17.10;90.60;;;;;;4900880;29;20096;-56
2023/07/21 07:42:57;;;;;;;9.07;7.30;;;17.10;90.50;;;;;;4901183;29;20048;-55
2023/07/21 07:45:24;;;;;;;10.90;7.10;;;17.10;90.70;;;;;;4901175;29;20052;-57
2023/07/21 07:47:52;;;;;;;9.88;7.13;;;17.10;90.90;;;;;;4901405;29;20139;-54
2023/07/21 07:50:20;;;;;;;9.95;7.57;;;17.10;90.80;;;;;;4901096;29;20484;-58
2023/07/21 07:52:47;;;;;;;11.80;7.40;;;17.10;90.40;;;;;;4882058;29;20108;-59
2023/07/21 07:55:15;;;;;;;12.48;7.95;;;17.10;90.80;;;;;;4896792;29;20057;-56
2023/07/21 07:57:46;;;;;;;8.95;7.47;;;17.10;91.00;;;;;;4900646;29;20121;-59
2023/07/21 08:00:14;;;;;;;9.15;8.13;;;17.20;91.10;;;;;;4901102;29;20044;-59
2023/07/21 08:02:41;;;;;;;10.27;8.40;;;17.20;91.10;;;;;;4884140;29;20093;-57
2023/07/21 08:05:09;;;;;;;9.00;7.60;;;17.30;91.30;;;;;;4900960;29;20048;-60
2023/07/21 08:07:36;;;;;;;9.63;8.32;;;17.40;91.30;;;;;;4900618;29;20059;-59
2023/07/21 08:10:04;;;;;;;11.02;7.53;;;17.30;90.90;;;;;;4884090;29;20373;-55
2023/07/21 08:12:32;;;;;;;10.30;7.53;;;17.30;91.20;;;;;;4884521;29;20122;-57
2023/07/21 08:14:59;;;;;;;9.10;7.10;;;17.40;90.50;;;;;;4901094;29;20476;-54
2023/07/21 08:17:26;;;;;;;11.90;6.90;;;17.40;90.20;;;;;;4900943;29;20488;-55
2023/07/21 08:19:53;;;;;;;10.90;7.60;;;17.30;90.20;;;;;;4884044;29;20124;-54
2023/07/21 08:22:21;;;;;;;8.35;7.20;;;17.30;90.40;;;;;;4900552;29;20048;-57
2023/07/21 08:24:48;;;;;;;8.25;6.78;;;17.30;90.70;;;;;;4883730;29;20062;-61
2023/07/21 08:27:16;;;;;;;12.45;7.30;;;17.40;90.10;;;;;;4900396;29;20052;-60
2023/07/21 08:29:46;;;;;;;7.03;6.32;;;17.40;89.70;;;;;;4900227;29;20037;-60
2023/07/21 08:32:23;;;;;;;7.40;6.15;;;17.60;89.50;;;;;;4899569;29;20051;-58
2023/07/21 08:34:59;;;;;;;10.48;6.47;;;17.70;89.40;;;;;;4905667;29;20043;-59
2023/07/21 08:37:29;;;;;;;10.85;6.60;;;17.80;88.30;;;;;;4919581;29;20040;-58
2023/07/21 08:39:57;;;;;;;10.98;7.05;;;17.80;88.20;;;;;;4897221;29;20047;-60
2023/07/21 08:42:24;;;;;;;8.15;6.70;;;17.70;87.80;;;;;;4865443;29;20048;-59
2023/07/21 08:45:01;;;;;;;7.65;6.47;;;17.80;87.70;;;;;;4881496;29;20120;-58
2023/07/21 08:47:28;;;;;;;7.75;6.25;;;17.90;87.60;;;;;;4881839;29;20048;-59
2023/07/21 08:49:56;;;;;;;8.68;6.43;;;17.90;87.10;;;;;;4881403;29;20056;-58
2023/07/21 08:52:23;;;;;;;9.20;7.05;;;18.00;87.40;;;;;;4881746;29;20049;-60
2023/07/21 08:54:50;;;;;;;10.55;6.82;;;18.00;87.10;;;;;;4862168;29;20128;-60
2023/07/21 08:57:24;;;;;;;9.23;7.20;;;18.10;87.50;;;;;;4881400;29;20041;-61
2023/07/21 08:59:52;;;;;;;10.65;6.97;;;18.20;87.90;;;;;;4855820;29;20050;-61
2023/07/21 09:02:19;;;;;;;7.28;6.03;;;18.20;87.60;;;;;;4862615;29;20037;-62
2023/07/21 09:04:47;;;;;;;10.25;6.57;;;18.30;87.80;;;;;;4862750;29;20052;-58
2023/07/21 09:07:14;;;;;;;9.40;6.90;;;18.40;87.50;;;;;;4846259;29;20413;-60
2023/07/21 09:09:41;;;;;;;10.73;6.72;;;18.50;87.80;;;;;;4862372;29;20042;-58
2023/07/21 09:12:09;;;;;;;8.20;6.75;;;18.50;87.60;;;;;;4861089;29;20046;-62
2023/07/21 09:14:36;;;;;;;7.65;6.68;;;18.60;86.90;;;;;;4862375;29;20034;-61
2023/07/21 09:17:04;;;;;;;7.50;6.60;;;18.70;86.40;;;;;;4862475;29;20053;-58
2023/07/21 09:19:31;;;;;;;8.45;7.53;;;18.60;86.90;;;;;;4862335;29;20046;-61
2023/07/21 09:21:58;;;;;;;9.93;6.38;;;18.50;87.80;;;;;;4861955;29;20041;-63
2023/07/21 09:24:26;;;;;;;7.63;6.75;;;18.50;88.20;;;;;;4860973;29;20049;-59
2023/07/21 09:26:53;;;;;;;10.05;6.63;;;18.60;87.80;;;;;;4862071;29;20045;-61
2023/07/21 09:29:21;;;;;;;8.27;6.68;;;18.80;86.90;;;;;;4862053;29;20045;-57
2023/07/21 09:31:48;;;;;;;7.45;6.32;;;18.90;86.30;;;;;;4861022;29;20432;-57
2023/07/21 09:34:25;;;;;;;;;;;;;;;;;;;;;
2023/07/21 09:37:18;;;;;;;14.52;7.13;;;19.10;86.60;;;;;;4861793;29;20165;-59
2023/07/21 09:39:45;;;;;;;7.60;6.80;;;19.00;86.00;;;;;;4860497;29;20069;-58
2023/07/21 09:42:16;;;;;;;8.32;7.22;;;18.90;86.10;;;;;;4862178;29;20088;-59
2023/07/21 09:44:44;;;;;;;8.35;7.40;;;18.90;86.80;;;;;;4862032;29;20037;-58
2023/07/21 09:47:11;;;;;;;10.27;7.38;;;19.00;87.40;;;;;;4861810;29;20122;-62
2023/07/21 09:49:39;;;;;;;9.05;6.82;;;19.10;87.00;;;;;;4861557;29;20045;-57
2023/07/21 09:52:06;;;;;;;8.43;6.53;;;19.30;85.70;;;;;;4861933;29;20041;-59
2023/07/21 09:54:33;;;;;;;9.23;6.32;;;19.50;84.40;;;;;;4839318;29;20072;-59
2023/07/21 09:57:03;;;;;;;11.23;6.85;;;19.50;84.20;;;;;;4880754;29;20079;-54
2023/07/21 09:59:30;;;;;;;8.48;6.47;;;19.50;83.80;;;;;;4868518;29;20040;-55
2023/07/21 10:01:58;;;;;;;7.97;6.00;;;19.60;84.40;;;;;;4902106;29;20113;-59
2023/07/21 10:04:26;;;;;;;10.65;6.82;;;19.70;84.40;;;;;;4918252;29;20123;-57
2023/07/21 10:06:56;;;;;;;6.85;6.13;;;19.60;84.60;;;;;;4918422;29;20044;-55
2023/07/21 10:09:26;;;;;;;10.55;7.03;;;19.60;84.60;;;;;;4902073;29;20436;-56
2023/07/21 10:11:53;;;;;;;7.65;6.50;;;19.50;84.80;;;;;;4917881;29;20051;-58
2023/07/21 10:15:08;;;;;;;8.30;6.25;;;19.50;85.30;;;;;;4909916;29;20048;-56
2023/07/21 10:17:32;;;;;;;6.97;5.93;;;19.50;85.30;;;;;;4898191;29;20048;-57
2023/07/21 10:19:59;;;;;;;9.20;6.00;;;19.70;85.40;;;;;;4898983;29;20068;-56
2023/07/21 10:22:27;;;;;;;7.50;5.90;;;19.60;85.60;;;;;;4899242;29;20044;-55
2023/07/21 10:25:04;;;;;;;12.65;6.20;;;19.70;85.60;;;;;;4899078;29;20053;-56
2023/07/21 10:27:34;;;;;;;12.93;5.28;;;19.80;85.10;;;;;;4899126;29;20055;-56
2023/07/21 10:30:01;;;;;;;7.88;5.47;;;19.90;85.80;;;;;;4881671;29;20049;-56
2023/07/21 10:32:30;;;;;;;8.77;4.82;;;20.00;85.30;;;;;;4880518;29;20052;-59
2023/07/21 10:34:57;;;;;;;6.70;4.78;;;20.30;84.20;;;;;;4897386;29;20049;-55
2023/07/21 10:37:24;;;;;;;8.82;5.70;;;20.40;84.60;;;;;;4897766;29;20060;-57
2023/07/21 10:39:55;;;;;;;9.38;5.82;;;20.60;85.60;;;;;;4880789;29;20059;-58
2023/07/21 10:42:22;;;;;;;8.05;4.97;;;20.70;84.10;;;;;;4898250;29;20036;-57
2023/07/21 10:44:50;;;;;;;8.25;5.65;;;20.40;84.00;;;;;;4897335;29;20051;-57
2023/07/21 10:47:17;;;;;;;6.80;4.95;;;20.50;84.90;;;;;;4881800;29;20060;-55
2023/07/21 10:49:45;;;;;;;5.47;4.63;;;20.50;83.90;;;;;;4898810;29;20115;-54
2023/07/21 10:52:12;;;;;;;6.53;4.55;;;20.70;85.10;;;;;;4899156;29;20040;-56
2023/07/21 10:54:42;;;;;;;5.97;4.35;;;20.80;84.40;;;;;;4878539;29;20055;-58
2023/07/21 10:57:12;;;;;;;6.13;4.75;;;20.90;84.80;;;;;;4879150;29;20128;-59
2023/07/21 10:59:39;;;;;;;9.75;5.10;;;20.80;83.90;;;;;;4880115;29;20045;-58
2023/07/21 11:02:07;;;;;;;5.30;4.80;;;20.90;84.70;;;;;;4880286;29;20123;-56
2023/07/21 11:04:35;;;;;;;7.43;4.95;;;21.00;84.00;;;;;;4878382;29;20060;-55
2023/07/21 11:07:06;;;;;;;7.20;5.47;;;21.00;84.10;;;;;;4880093;29;20114;-59
2023/07/21 11:09:36;;;;;;;6.47;4.88;;;20.90;84.10;;;;;;4880138;29;20053;-59
2023/07/21 11:12:04;;;;;;;5.72;4.78;;;20.90;84.60;;;;;;4879539;29;20041;-55
2023/07/21 11:14:31;;;;;;;7.10;4.63;;;21.00;85.00;;;;;;4880057;29;20033;-56
2023/07/21 11:16:59;;;;;;;9.18;4.68;;;21.10;83.10;;;;;;4880174;29;20045;-58
2023/07/21 11:19:27;;;;;;;5.88;4.47;;;21.00;83.70;;;;;;4879915;29;20112;-54
2023/07/21 11:21:54;;;;;;;5.45;4.05;;;21.00;83.50;;;;;;4879908;29;20051;-57
2023/07/21 11:24:28;;;;;;;5.18;4.40;;;21.10;83.70;;;;;;4879952;29;20060;-57
2023/07/21 11:26:57;;;;;;;5.45;4.53;;;21.20;83.50;;;;;;4880205;29;20057;-60
2023/07/21 11:29:25;;;;;;;7.30;4.10;;;21.20;83.60;;;;;;4879978;29;20044;-56
2023/07/21 11:31:56;;;;;;;6.03;3.90;;;21.30;84.40;;;;;;4880248;29;20380;-59
2023/07/21 11:34:23;;;;;;;7.53;3.80;;;21.50;82.80;;;;;;4879499;29;20045;-59
2023/07/21 11:36:54;;;;;;;7.15;5.43;;;21.40;82.40;;;;;;4880045;29;20052;-58
2023/07/21 11:39:21;;;;;;;12.05;4.25;;;21.30;81.50;;;;;;4880010;29;20044;-55
2023/07/21 11:41:49;;;;;;;6.88;3.33;;;21.00;80.80;;;;;;4880147;29;20057;-56
2023/07/21 11:44:16;;;;;;;4.40;2.72;;;21.00;81.80;;;;;;4878916;29;20044;-56
2023/07/21 11:46:43;;;;;;;3.75;2.50;;;21.20;82.00;;;;;;4883182;29;20052;-56
2023/07/21 11:49:14;;;;;;;6.05;2.83;;;21.30;80.90;;;;;;4883751;29;20092;-54
2023/07/21 11:51:45;;;;;;;6.75;3.30;;;21.30;81.70;;;;;;4884062;29;20052;-56
2023/07/21 11:54:13;;;;;;;4.35;3.03;;;21.60;81.70;;;;;;4885877;29;20049;-58
2023/07/21 11:56:47;;;;;;;5.65;3.30;;;21.70;80.90;;;;;;4886114;29;20109;-59
2023/07/21 11:59:14;;;;;;;3.85;3.38;;;21.80;81.00;;;;;;4901513;29;20040;-59
2023/07/21 12:01:44;;;;;;;4.35;3.55;;;21.80;80.40;;;;;;4885283;29;20040;-58
2023/07/21 12:04:11;;;;;;;5.38;3.70;;;21.80;81.40;;;;;;4901742;29;20048;-59
2023/07/21 12:06:38;;;;;;;4.00;3.47;;;21.90;82.00;;;;;;4902147;29;20073;-58
2023/07/21 12:09:06;;;;;;;5.00;3.00;;;22.10;81.60;;;;;;4902264;29;20041;-56
2023/07/21 12:11:34;;;;;;;4.72;3.47;;;22.30;81.80;;;;;;4902181;29;20113;-57
2023/07/21 12:14:08;;;;;;;5.30;3.35;;;22.40;80.70;;;;;;4885193;29;20051;-60
2023/07/21 12:16:39;;;;;;;4.97;3.20;;;22.30;80.70;;;;;;4885054;29;20124;-54
2023/07/21 12:19:07;;;;;;;5.03;3.33;;;22.10;80.40;;;;;;4901295;29;20114;-56
2023/07/21 12:21:36;;;;;;;4.32;3.00;;;22.10;81.20;;;;;;4884292;29;20101;-60
2023/07/21 12:24:12;;;;;;;6.68;3.42;;;22.00;81.50;;;;;;4885893;29;20040;-60
2023/07/21 12:26:39;;;;;;;3.80;2.85;;;21.90;81.50;;;;;;4901570;29;20052;-57
2023/07/21 12:29:07;;;;;;;3.90;2.95;;;21.70;81.40;;;;;;4884699;29;20131;-58
2023/07/21 12:31:34;;;;;;;3.00;2.50;;;21.70;81.50;;;;;;4900851;29;20045;-55
2023/07/21 12:34:02;;;;;;;3.72;3.10;;;21.90;82.00;;;;;;4900875;29;20116;-59
2023/07/21 12:36:29;;;;;;;4.90;2.95;;;22.10;81.70;;;;;;4901414;29;20551;-56
2023/07/21 12:38:57;;;;;;;3.95;2.75;;;22.10;81.30;;;;;;4901137;29;20051;-62
2023/07/21 12:41:26;;;;;;;3.63;2.90;;;21.90;80.90;;;;;;4901510;29;20135;-62
2023/07/21 12:43:54;;;;;;;4.78;2.88;;;21.80;81.70;;;;;;4900961;29;20120;-60
2023/07/21 12:46:21;;;;;;;5.03;3.22;;;21.70;82.20;;;;;;4900818;29;20044;-55
2023/07/21 12:48:48;;;;;;;4.85;3.45;;;21.40;81.80;;;;;;4884214;29;20052;-56
2023/07/21 12:51:15;;;;;;;6.97;3.65;;;21.40;83.10;;;;;;4900657;29;20096;-56
2023/07/21 12:53:43;;;;;;;5.60;3.03;;;21.50;83.20;;;;;;4900589;29;20051;-56
2023/07/21 12:56:12;;;;;;;4.20;3.08;;;21.60;83.10;;;;;;4899985;29;20104;-56
2023/07/21 12:58:40;;;;;;;2.83;1.98;;;21.60;82.50;;;;;;4900095;29;20047;-58
2023/07/21 13:01:15;;;;;;;3.40;1.60;;;21.40;80.10;;;;;;4883296;29;20172;-61
2023/07/21 13:03:43;;;;;;;2.42;1.48;;;21.20;78.10;;;;;;4900960;29;20044;-59
2023/07/21 13:06:10;;;;;;;3.75;1.65;;;21.10;79.60;;;;;;4901132;29;20045;-60
2023/07/21 13:08:37;;;;;;;3.22;2.47;;;20.90;80.10;;;;;;4901020;29;20112;-54
2023/07/21 13:11:04;;;;;;;4.03;2.38;;;20.80;81.40;;;;;;4900320;29;20079;-58
2023/07/21 13:13:30;;;;;;;3.60;1.92;;;20.70;82.20;;;;;;4900676;29;20044;-61
2023/07/21 13:15:58;;;;;;;4.75;2.20;;;20.50;82.60;;;;;;4900140;29;20122;-59
2023/07/21 13:18:25;;;;;;;3.00;1.90;;;20.50;82.80;;;;;;4900114;29;20042;-59
2023/07/21 13:20:52;;;;;;;8.77;1.70;;;20.50;82.70;;;;;;4900071;29;20051;-58
2023/07/21 13:23:20;;;;;;;4.70;2.10;;;20.30;82.50;;;;;;4899935;29;20056;-56
2023/07/21 13:25:51;;;;;;;3.38;1.75;;;20.30;83.10;;;;;;4900155;29;20048;-57
2023/07/21 13:28:19;;;;;;;6.65;2.20;;;20.20;83.20;;;;;;4883288;29;20080;-55
2023/07/21 13:30:46;;;;;;;5.70;1.63;;;20.30;83.50;;;;;;4900138;29;20044;-58
2023/07/21 13:33:17;;;;;;;6.90;2.30;;;20.20;83.00;;;;;;4899710;29;20052;-55
2023/07/21 13:35:49;;;;;;;5.00;1.88;;;20.30;83.10;;;;;;4900081;29;20063;-55
2023/07/21 13:38:17;;;;;;;3.40;2.13;;;20.30;83.30;;;;;;4899590;29;20040;-56
2023/07/21 13:40:47;;;;;;;4.78;1.90;;;20.40;83.30;;;;;;4899863;29;20051;-56
2023/07/21 13:43:29;;;;;;;4.05;1.80;;;20.50;83.50;;;;;;4884259;29;20116;-57
2023/07/21 13:45:56;;;;;;;3.08;1.90;;;20.80;81.80;;;;;;4899595;29;20076;-57
2023/07/21 13:48:24;;;;;;;6.88;1.88;;;20.90;82.10;;;;;;4899669;29;20092;-56
2023/07/21 13:50:51;;;;;;;3.08;1.60;;;21.20;81.70;;;;;;4899387;29;20048;-56
2023/07/21 13:53:21;;;;;;;4.45;1.65;;;21.30;80.90;;;;;;4899852;29;20060;-61
2023/07/21 13:55:51;;;;;;;2.58;1.60;;;21.40;80.00;;;;;;4899242;29;20162;-59
2023/07/21 13:58:18;;;;;;;5.40;1.90;;;21.40;80.30;;;;;;4883583;29;20055;-59
2023/07/21 14:00:45;;;;;;;4.63;1.90;;;21.60;80.10;;;;;;4902065;29;20045;-52
2023/07/21 14:03:12;;;;;;;2.10;1.52;;;21.80;81.00;;;;;;4901107;29;20053;-56
2023/07/21 14:05:39;;;;;;;5.32;1.70;;;22.00;80.30;;;;;;4900646;29;20052;-54
2023/07/21 14:08:07;;;;;;;5.97;1.80;;;22.00;80.00;;;;;;4882974;29;20092;-63
2023/07/21 14:11:08;;;;;;;;;;;;;;;;;;;;;
2023/07/21 14:13:37;;;;;;;2.17;1.40;;;22.00;78.70;;;;;;4894077;29;20059;-62
2023/07/21 14:16:10;;;;;;;3.88;2.10;;;21.90;79.80;;;;;;4899293;29;20048;-61
2023/07/21 14:18:37;;;;;;;4.70;1.90;;;21.80;80.00;;;;;;4899414;29;20081;-56
2023/07/21 14:21:05;;;;;;;3.83;1.55;;;21.80;79.50;;;;;;4899560;29;20044;-61
2023/07/21 14:23:32;;;;;;;4.13;1.55;;;21.80;79.80;;;;;;4899123;29;20049;-54
2023/07/21 14:25:59;;;;;;;4.93;1.40;;;21.90;80.20;;;;;;4899488;29;20396;-55
2023/07/21 14:28:26;;;;;;;5.60;1.83;;;22.20;79.30;;;;;;4899254;29;20048;-56
2023/07/21 14:30:54;;;;;;;2.60;1.58;;;22.30;78.60;;;;;;4882609;29;20052;-57
2023/07/21 14:33:21;;;;;;;3.10;1.50;;;22.20;78.70;;;;;;4899193;29;20048;-59
2023/07/21 14:35:51;;;;;;;2.85;1.35;;;22.10;79.50;;;;;;4899576;29;20044;-54
2023/07/21 14:38:20;;;;;;;2.45;1.45;;;22.20;79.00;;;;;;4907654;29;20044;-59
2023/07/21 14:40:47;;;;;;;2.38;1.40;;;22.20;77.60;;;;;;4917977;29;20047;-59
2023/07/21 14:43:15;;;;;;;3.58;1.40;;;22.20;78.20;;;;;;4906266;29;20041;-54
2023/07/21 14:46:05;;;;;;;4.13;1.45;;;22.10;77.70;;;;;;4885085;29;20053;-54
2023/07/21 14:48:32;;;;;;;3.20;1.48;;;22.00;77.50;;;;;;4900932;29;20052;-54
2023/07/21 14:50:59;;;;;;;5.50;1.45;;;22.00;77.80;;;;;;4898907;29;20044;-57
2023/07/21 14:53:27;;;;;;;2.05;1.40;;;22.00;78.00;;;;;;4898816;29;20040;-57
2023/07/21 14:55:54;;;;;;;3.97;1.45;;;22.00;78.40;;;;;;4898613;29;20076;-56
2023/07/21 14:58:21;;;;;;;3.33;1.50;;;22.00;78.70;;;;;;4898713;29;20072;-59
2023/07/21 15:00:47;;;;;;;3.83;1.58;;;22.00;78.70;;;;;;4898439;29;20049;-62
2023/07/21 15:03:14;;;;;;;6.13;1.80;;;22.00;78.70;;;;;;4897966;29;20045;-61
2023/07/21 15:05:41;;;;;;;3.63;1.67;;;22.00;78.60;;;;;;4898825;29;20075;-55
2023/07/21 15:08:08;;;;;;;5.45;1.70;;;22.00;79.70;;;;;;4892362;29;20048;-56
2023/07/21 15:10:35;;;;;;;3.10;1.50;;;22.00;79.40;;;;;;4892473;29;20040;-57
2023/07/21 15:13:02;;;;;;;3.90;1.75;;;21.80;78.90;;;;;;4898241;29;20484;-51
2023/07/21 15:15:29;;;;;;;4.53;1.70;;;21.60;80.20;;;;;;4898729;29;20045;-61
2023/07/21 15:17:56;;;;;;;2.83;1.90;;;21.50;80.80;;;;;;4898755;29;20444;-54
2023/07/21 15:20:25;;;;;;;4.20;1.60;;;21.30;81.40;;;;;;4900012;29;20047;-56
2023/07/21 15:22:52;;;;;;;3.85;1.85;;;21.10;82.00;;;;;;4902267;29;20538;-60
2023/07/21 15:25:22;;;;;;;3.50;1.90;;;21.00;82.50;;;;;;4901824;29;20115;-62
2023/07/21 15:27:51;;;;;;;2.70;1.70;;;20.90;82.90;;;;;;4895899;29;20041;-57
2023/07/21 15:30:20;;;;;;;4.35;2.05;;;20.80;83.30;;;;;;4885135;29;20142;-57
2023/07/21 15:32:51;;;;;;;4.53;1.90;;;20.70;83.40;;;;;;4884366;29;20053;-58
2023/07/21 15:35:18;;;;;;;2.78;1.60;;;20.70;84.00;;;;;;4901933;29;20047;-55
2023/07/21 15:37:48;;;;;;;2.80;1.83;;;20.60;83.80;;;;;;4901720;29;20037;-57
2023/07/21 15:40:18;;;;;;;5.07;1.90;;;20.60;84.10;;;;;;4901733;29;20047;-55
2023/07/21 15:42:55;;;;;;;4.25;2.00;;;20.50;84.20;;;;;;4901123;29;20036;-58
2023/07/21 15:45:23;;;;;;;3.55;2.78;;;20.50;84.40;;;;;;4901555;29;20045;-55
2023/07/21 15:47:53;;;;;;;4.40;1.75;;;20.50;84.50;;;;;;4900984;29;20053;-54
2023/07/21 15:50:23;;;;;;;3.30;1.73;;;20.60;84.80;;;;;;4900844;29;20053;-53
2023/07/21 15:52:51;;;;;;;3.17;1.83;;;20.60;84.80;;;;;;4901166;29;20049;-56
2023/07/21 15:55:18;;;;;;;5.43;1.70;;;20.70;84.80;;;;;;4901467;29;20053;-56
2023/07/21 15:57:45;;;;;;;3.58;1.73;;;20.80;84.80;;;;;;4901471;29;20041;-56
2023/07/21 16:00:19;;;;;;;5.07;1.67;;;20.80;84.50;;;;;;4901393;29;20051;-56
2023/07/21 16:02:46;;;;;;;7.55;2.33;;;20.80;84.30;;;;;;4901234;29;20036;-56
2023/07/21 16:05:22;;;;;;;3.05;1.75;;;20.90;84.10;;;;;;4901375;29;20047;-59
2023/07/21 16:07:49;;;;;;;3.05;1.60;;;20.90;84.00;;;;;;4900946;29;20045;-55
2023/07/21 16:10:19;;;;;;;3.95;1.55;;;20.90;83.90;;;;;;4884377;29;20056;-55